Date,TemperatureHighF,TemperatureAvgF,TemperatureLowF,DewpointHighF,DewpointAvgF,DewpointLowF,HumidityHigh,HumidityAvg,HumidityLow,PressureMaxIn,PressureMinIn,WindSpeedMaxMPH,WindSpeedAvgMPH,GustSpeedMaxMPH,PrecipitationSumIn
2013-10-1,82,67,55,59,52,40,88,62,34,29.04,28.85,21,8,21,0.00
2013-10-2,81,63,45,45,38,28,77,45,17,29.19,29.04,10,3,10,0.00
2013-10-3,71,60,52,61,52,40,94,77,50,29.05,28.94,15,4,15,0.19
2013-10-4,58,56,54,57,55,54,99,96,90,29.14,28.99,14,6,14,0.09
2013-10-5,64,62,57,64,62,56,99,99,97,29.09,28.79,20,5,20,0.44
2013-10-6,65,54,46,59,44,37,99,71,38,28.82,28.75,15,4,15,0.01
2013-10-7,69,54,44,47,42,35,94,70,33,29.19,28.77,23,6,23,0.02
2013-10-8,78,56,38,48,43,36,97,67,31,29.22,29.12,21,5,21,0.00
2013-10-9,77,61,48,51,47,43,93,63,35,29.27,29.17,17,5,17,0.00
2013-10-10,78,57,41,51,45,28,97,70,30,29.25,29.11,12,2,12,0.00
2013-10-17,52,46,42,46,38,37,86,74,55,28.88,28.84,7,2,7,0.37
2013-10-18,49,45,41,44,41,36,94,87,78,28.97,28.84,18,5,18,0.01
2013-10-19,56,44,35,39,35,28,97,74,37,28.97,28.75,26,6,26,0.13
2013-10-20,46,38,31,44,37,31,99,97,87,28.92,28.74,20,3,20,0.07
2013-10-21,45,37,33,41,28,19,87,69,51,29.12,28.76,24,9,24,0.00
2013-10-22,51,37,29,30,25,23,85,64,37,29.05,28.93,17,7,17,0.00
2013-10-23,46,35,28,29,25,19,81,68,36,29.07,29.01,15,5,15,0.00
2013-10-24,43,36,31,28,25,23,84,66,51,29.33,29.07,15,5,15,0.00
2013-10-25,51,39,29,32,28,26,93,68,44,29.38,28.82,29,9,29,0.00
2013-10-26,51,46,40,36,31,26,74,57,40,29.12,28.76,26,9,26,0.00
2013-10-27,57,42,30,32,29,25,88,61,31,29.16,28.92,21,6,21,0.00
2013-10-28,44,37,27,31,25,21,79,62,45,29.52,29.16,18,7,18,0.00
2013-10-29,44,35,26,39,30,20,88,80,76,29.51,29.22,10,4,10,0.00
2013-10-30,52,46,40,52,44,30,99,93,66,29.23,28.83,8,3,8,0.01
2013-10-31,56,52,43,56,51,42,99,99,96,28.95,28.31,20,4,20,0.27